createdAt,value
2022-08-05T00:02:26.826Z,18.40
2022-08-05T00:06:33.361Z,18.40
2022-08-05T00:10:37.536Z,18.20
2022-08-05T00:14:39.289Z,18.20
2022-08-05T00:18:44.823Z,18.10
2022-08-05T00:22:56.024Z,18.10
2022-08-05T00:27:04.709Z,18.00
2022-08-05T00:31:12.442Z,18.00
2022-08-05T00:35:14.112Z,18.00
2022-08-05T00:39:16.040Z,17.90
2022-08-05T00:43:18.178Z,17.90
2022-08-05T00:47:20.245Z,17.90
2022-08-05T00:51:51.383Z,17.80
2022-08-05T00:55:45.090Z,17.80
2022-08-05T00:59:48.771Z,17.80
2022-08-05T01:03:51.867Z,17.70
2022-08-05T01:08:40.528Z,17.70
2022-08-05T01:12:19.161Z,17.70
2022-08-05T01:16:30.326Z,17.70
2022-08-05T01:20:49.741Z,17.60
2022-08-05T01:25:13.652Z,17.60
2022-08-05T01:29:45.355Z,17.60
2022-08-05T01:33:59.087Z,17.60
2022-08-05T01:38:02.723Z,17.60
2022-08-05T01:42:09.725Z,17.60
2022-08-05T01:46:16.331Z,17.60
2022-08-05T01:50:38.668Z,17.60
2022-08-05T01:54:55.772Z,17.70
2022-08-05T01:58:58.566Z,17.70
2022-08-05T02:03:24.408Z,17.70
2022-08-05T02:07:33.735Z,17.70
2022-08-05T02:11:56.152Z,17.80
2022-08-05T02:16:22.639Z,17.90
2022-08-05T02:20:30.391Z,18.00
2022-08-05T02:24:39.004Z,18.00
2022-08-05T02:28:46.055Z,18.00
2022-08-05T02:32:51.412Z,18.00
2022-08-05T02:36:57.347Z,17.90
2022-08-05T02:41:00.121Z,17.90
2022-08-05T02:45:17.272Z,17.90
2022-08-05T02:49:20.099Z,17.80
2022-08-05T02:53:24.087Z,17.90
2022-08-05T02:58:10.790Z,17.90
2022-08-05T03:01:51.877Z,17.80
2022-08-05T03:06:55.040Z,17.80
2022-08-05T03:10:24.579Z,17.70
2022-08-05T03:14:26.764Z,17.50
2022-08-05T03:18:30.151Z,17.40
2022-08-05T03:22:33.061Z,17.40
2022-08-05T03:26:37.186Z,17.40
2022-08-05T03:30:41.062Z,17.30
2022-08-05T03:34:50.653Z,17.30
2022-08-05T03:38:53.555Z,17.20
2022-08-05T03:42:55.252Z,17.20
2022-08-05T03:46:56.965Z,17.20
2022-08-05T03:52:37.445Z,17.30
2022-08-05T03:56:12.115Z,17.40
2022-08-05T04:00:15.648Z,17.40
2022-08-05T04:04:21.519Z,17.50
2022-08-05T04:08:30.009Z,17.50
2022-08-05T04:16:39.083Z,17.60
2022-08-05T04:20:41.370Z,17.50
2022-08-05T04:24:52.408Z,17.50
2022-08-05T04:28:54.752Z,17.50
2022-08-05T04:32:56.497Z,17.40
2022-08-05T04:36:58.184Z,17.40
2022-08-05T04:40:59.853Z,17.40
2022-08-05T04:45:05.686Z,17.40
2022-08-05T04:49:14.421Z,17.40
2022-08-05T04:53:18.220Z,17.30
2022-08-05T04:57:20.051Z,17.30
2022-08-05T05:02:08.386Z,17.30
2022-08-05T05:06:39.187Z,17.30
2022-08-05T05:10:06.597Z,17.30
2022-08-05T05:14:08.638Z,17.30
2022-08-05T05:18:16.592Z,17.30
2022-08-05T05:22:34.091Z,17.30
2022-08-05T05:26:35.752Z,17.20
2022-08-05T05:30:38.858Z,17.10
2022-08-05T05:34:40.530Z,17.10
2022-08-05T05:38:42.228Z,17.20
2022-08-05T05:42:47.106Z,17.10
2022-08-05T05:46:49.180Z,17.10
2022-08-05T05:50:52.831Z,17.20
2022-08-05T05:54:54.493Z,17.20
2022-08-05T05:58:56.203Z,17.30
2022-08-05T06:02:57.854Z,17.30
2022-08-05T06:07:01.571Z,17.30
2022-08-05T06:11:04.125Z,17.30
2022-08-05T06:15:08.125Z,17.30
2022-08-05T06:19:09.911Z,17.30
2022-08-05T06:23:14.228Z,17.30
2022-08-05T06:27:17.211Z,17.30
2022-08-05T06:31:38.635Z,17.40
2022-08-05T06:36:06.907Z,17.40
2022-08-05T06:40:05.960Z,17.40
2022-08-05T06:44:07.663Z,17.40
2022-08-05T06:48:47.133Z,17.40
2022-08-05T06:52:37.221Z,17.30
2022-08-05T06:56:40.153Z,17.20
2022-08-05T07:01:00.012Z,17.10
2022-08-05T07:05:01.844Z,16.90
2022-08-05T07:09:04.805Z,16.90
2022-08-05T07:13:58.548Z,16.90
2022-08-05T07:18:00.996Z,16.80
2022-08-05T07:22:08.381Z,16.80
2022-08-05T07:26:10.180Z,16.80
2022-08-05T07:30:27.779Z,16.80
2022-08-05T07:34:32.176Z,16.70
2022-08-05T07:38:43.482Z,16.70
2022-08-05T07:42:45.903Z,16.70
2022-08-05T07:46:50.437Z,16.70
2022-08-05T07:50:52.273Z,16.80
2022-08-05T07:54:53.960Z,16.70
2022-08-05T07:58:58.781Z,16.70
2022-08-05T08:03:14.140Z,16.80
2022-08-05T08:07:23.066Z,16.80
2022-08-05T08:11:27.799Z,16.80
2022-08-05T08:16:35.469Z,16.70
2022-08-05T08:20:43.785Z,16.70
2022-08-05T08:24:45.972Z,16.70
2022-08-05T08:28:59.549Z,16.70
2022-08-05T08:33:13.758Z,16.60
2022-08-05T08:37:19.368Z,16.50
2022-08-05T08:41:26.326Z,16.40
2022-08-05T08:45:54.027Z,16.30
2022-08-05T08:50:23.314Z,16.40
2022-08-05T08:54:20.204Z,16.40
2022-08-05T08:58:37.068Z,16.50
2022-08-05T09:02:45.837Z,16.50
2022-08-05T09:06:49.847Z,16.70
2022-08-05T09:10:52.291Z,16.60
2022-08-05T09:14:59.558Z,16.70
2022-08-05T09:19:16.240Z,16.80
2022-08-05T09:23:21.944Z,16.80
2022-08-05T09:28:04.170Z,16.90
2022-08-05T09:32:51.177Z,17.10
2022-08-05T09:36:59.830Z,17.00
2022-08-05T09:41:11.613Z,17.10
2022-08-05T09:46:06.791Z,17.10
2022-08-05T09:50:01.074Z,17.10
2022-08-05T09:54:07.449Z,17.20
2022-08-05T09:58:14.177Z,17.10
2022-08-05T10:02:34.353Z,17.30
2022-08-05T10:06:36.337Z,17.40
2022-08-05T10:10:46.191Z,17.50
2022-08-05T10:14:50.067Z,17.70
2022-08-05T10:18:56.418Z,17.90
2022-08-05T10:23:00.412Z,18.30
2022-08-05T10:27:02.199Z,18.70
2022-08-05T10:32:50.751Z,19.00
2022-08-05T10:35:33.798Z,19.20
2022-08-05T10:40:03.400Z,19.40
2022-08-05T10:44:12.770Z,19.50
2022-08-05T10:53:00.991Z,19.90
2022-08-05T10:57:03.728Z,20.00
2022-08-05T11:01:06.711Z,20.10
2022-08-05T11:05:10.505Z,20.20
2022-08-05T11:09:16.607Z,20.30
2022-08-05T11:13:58.101Z,20.40
2022-08-05T11:18:07.114Z,20.90
2022-08-05T11:22:56.905Z,20.90
2022-08-05T11:27:51.404Z,20.50
2022-08-05T11:32:29.085Z,20.90
2022-08-05T11:36:47.065Z,21.20
2022-08-05T11:41:35.335Z,21.10
2022-08-05T11:46:15.310Z,21.40
2022-08-05T11:49:50.999Z,21.30
2022-08-05T11:53:54.071Z,21.20
2022-08-05T11:58:09.840Z,20.80
2022-08-05T12:02:30.652Z,20.90
2022-08-05T12:06:35.769Z,21.60
2022-08-05T12:10:45.048Z,22.20
2022-08-05T12:14:47.892Z,22.40
2022-08-05T12:18:53.292Z,22.40
2022-08-05T12:23:09.483Z,22.50
2022-08-05T12:27:32.871Z,22.60
2022-08-05T12:31:46.160Z,22.30
2022-08-05T12:35:51.842Z,22.40
2022-08-05T12:39:57.325Z,22.60
2022-08-05T12:44:14.256Z,22.40
2022-08-05T12:48:17.168Z,22.60
2022-08-05T12:52:35.423Z,23.00
2022-08-05T12:56:43.167Z,23.00
2022-08-05T13:01:59.784Z,22.90
2022-08-05T13:05:12.733Z,22.80
2022-08-05T13:09:28.396Z,22.80
2022-08-05T13:14:06.301Z,22.30
2022-08-05T13:17:55.826Z,21.90
2022-08-05T13:22:01.211Z,21.60
2022-08-05T13:26:05.695Z,21.50
2022-08-05T13:30:34.953Z,21.20
2022-08-05T13:34:32.859Z,21.10
2022-08-05T13:38:36.249Z,20.90
2022-08-05T13:42:40.977Z,20.80
2022-08-05T13:47:01.778Z,20.80
2022-08-05T13:51:09.522Z,20.70
2022-08-05T13:55:11.370Z,20.50
2022-08-05T13:59:33.012Z,20.50
2022-08-05T14:03:34.724Z,20.60
2022-08-05T14:08:00.987Z,20.80
2022-08-05T14:12:17.161Z,21.00
2022-08-05T14:16:20.162Z,21.10
2022-08-05T14:20:27.325Z,21.10
2022-08-05T14:24:29.243Z,21.30
2022-08-05T14:28:32.322Z,21.30
2022-08-05T14:32:34.264Z,21.60
2022-08-05T14:36:40.648Z,21.80
2022-08-05T14:40:42.395Z,22.00
2022-08-05T14:44:45.847Z,21.90
2022-08-05T14:48:49.917Z,21.90
2022-08-05T14:52:57.539Z,22.20
2022-08-05T14:57:00.840Z,22.10
2022-08-05T15:01:07.227Z,21.90
2022-08-05T15:05:18.016Z,21.90
2022-08-05T15:09:51.330Z,21.50
2022-08-05T15:13:45.908Z,21.40
2022-08-05T15:17:52.043Z,21.40
2022-08-05T15:21:58.025Z,21.60
2022-08-05T15:26:03.201Z,21.80
2022-08-05T15:30:05.787Z,21.90
2022-08-05T15:34:31.628Z,21.80
2022-08-05T15:38:35.582Z,21.90
2022-08-05T15:42:55.126Z,21.80
2022-08-05T15:47:01.677Z,21.80
2022-08-05T15:51:05.817Z,21.90
2022-08-05T15:55:15.436Z,21.90
2022-08-05T15:59:21.912Z,21.70
2022-08-05T16:03:24.271Z,21.70
2022-08-05T16:07:26.027Z,21.50
2022-08-05T16:11:43.098Z,21.30
2022-08-05T16:15:53.523Z,21.30
2022-08-05T16:20:05.105Z,21.20
2022-08-05T16:24:41.206Z,21.20
2022-08-05T16:28:36.324Z,21.20
2022-08-05T16:32:43.152Z,21.20
2022-08-05T16:36:46.514Z,21.10
2022-08-05T16:40:55.415Z,21.40
2022-08-05T16:45:02.140Z,21.40
2022-08-05T16:49:23.935Z,21.40
2022-08-05T16:53:32.189Z,21.40
2022-08-05T16:57:53.798Z,21.40
2022-08-05T17:02:02.553Z,21.40
2022-08-05T17:06:04.694Z,21.50
2022-08-05T17:10:06.862Z,21.40
2022-08-05T17:14:08.620Z,21.50
2022-08-05T17:18:15.806Z,21.60
2022-08-05T17:22:25.299Z,21.60
2022-08-05T17:26:27.559Z,21.40
2022-08-05T17:30:30.131Z,21.10
2022-08-05T17:34:32.291Z,21.00
2022-08-05T17:38:36.736Z,21.00
2022-08-05T17:42:41.383Z,20.90
2022-08-05T17:46:44.740Z,20.70
2022-08-05T17:50:48.608Z,20.60
2022-08-05T17:54:51.587Z,20.50
2022-08-05T17:58:53.240Z,20.50
2022-08-05T18:02:54.925Z,20.40
2022-08-05T18:07:00.363Z,20.30
2022-08-05T18:11:03.903Z,20.20
2022-08-05T18:15:06.134Z,20.20
2022-08-05T18:19:10.622Z,20.10
2022-08-05T18:23:12.623Z,19.90
2022-08-05T18:27:18.861Z,19.70
2022-08-05T18:31:21.511Z,19.60
2022-08-05T18:35:49.636Z,19.40
2022-08-05T18:40:34.545Z,19.30
2022-08-05T18:44:08.038Z,19.00
2022-08-05T18:48:11.381Z,18.90
2022-08-05T18:52:41.485Z,18.80
2022-08-05T18:56:53.270Z,18.60
2022-08-05T19:00:55.733Z,18.40
2022-08-05T19:05:02.247Z,18.20
2022-08-05T19:09:21.154Z,18.00
2022-08-05T19:13:22.984Z,17.80
2022-08-05T19:17:24.824Z,17.70
2022-08-05T19:21:36.221Z,17.60
2022-08-05T19:25:38.197Z,17.40
2022-08-05T19:29:43.799Z,17.30
2022-08-05T19:33:48.279Z,17.10
2022-08-05T19:38:06.210Z,16.90
2022-08-05T19:42:09.709Z,16.70
2022-08-05T19:46:29.006Z,16.40
2022-08-05T19:50:32.296Z,16.20
2022-08-05T19:54:35.631Z,16.00
2022-08-05T19:58:53.526Z,15.90
2022-08-05T20:02:57.629Z,15.70
2022-08-05T20:07:00.218Z,15.50
2022-08-05T20:11:03.651Z,15.30
2022-08-05T20:15:07.923Z,15.20
2022-08-05T20:19:10.511Z,15.10
2022-08-05T20:23:13.263Z,15.10
2022-08-05T20:27:15.052Z,15.00
2022-08-05T20:31:28.563Z,15.10
2022-08-05T20:35:40.528Z,15.00
2022-08-05T20:39:51.722Z,15.00
2022-08-05T20:43:58.485Z,14.90
2022-08-05T20:48:03.397Z,14.70
2022-08-05T20:52:05.302Z,14.70
2022-08-05T20:56:09.650Z,14.60
2022-08-05T21:00:40.058Z,14.50
2022-08-05T21:04:36.504Z,14.40
2022-08-05T21:08:42.323Z,14.30
2022-08-05T21:12:58.166Z,14.20
2022-08-05T21:17:07.579Z,14.10
2022-08-05T21:21:09.296Z,13.90
2022-08-05T21:25:12.188Z,13.80
2022-08-05T21:29:16.795Z,13.90
2022-08-05T21:33:22.342Z,13.60
2022-08-05T21:37:26.192Z,13.60
2022-08-05T21:41:33.834Z,13.50
2022-08-05T21:45:56.707Z,13.30
2022-08-05T21:50:00.947Z,13.30
2022-08-05T21:54:04.034Z,13.20
2022-08-05T21:58:05.900Z,13.10
2022-08-05T22:02:07.664Z,13.00
2022-08-05T22:06:09.423Z,13.00
2022-08-05T22:10:11.187Z,12.90
2022-08-05T22:14:35.782Z,12.80
2022-08-05T22:18:35.435Z,12.70
2022-08-05T22:22:55.739Z,12.70
2022-08-05T22:27:19.131Z,12.60
2022-08-05T22:31:20.792Z,12.60
2022-08-05T22:35:22.530Z,12.70
2022-08-05T22:39:32.569Z,12.80
2022-08-05T22:43:37.411Z,12.80
2022-08-05T22:47:39.576Z,12.90
2022-08-05T22:52:02.974Z,12.90
2022-08-05T22:56:09.825Z,12.90
2022-08-05T23:00:12.293Z,12.90
2022-08-05T23:04:20.236Z,12.80
2022-08-05T23:08:22.551Z,12.70
2022-08-05T23:12:24.623Z,12.60
2022-08-05T23:16:45.030Z,12.60
2022-08-05T23:20:53.835Z,12.50
2022-08-05T23:24:55.822Z,12.40
2022-08-05T23:28:57.529Z,12.30
2022-08-05T23:33:00.354Z,12.20
2022-08-05T23:37:02.280Z,12.10
2022-08-05T23:41:08.458Z,12.10
2022-08-05T23:45:14.121Z,12.00
2022-08-05T23:49:23.682Z,11.90
2022-08-05T23:53:46.463Z,11.80
2022-08-05T23:57:52.710Z,11.70
